createdAt,value
2023-05-08T00:01:31.124Z,98365.98
2023-05-08T00:03:58.681Z,98366.48
2023-05-08T00:06:27.674Z,98369.89
2023-05-08T00:08:57.632Z,98372.75
2023-05-08T00:11:24.499Z,98371.02
2023-05-08T00:13:51.254Z,98371.60
2023-05-08T00:16:18.242Z,98373.18
2023-05-08T00:18:45.112Z,98379.88
2023-05-08T00:21:11.998Z,98379.66
2023-05-08T00:23:38.786Z,98381.36
2023-05-08T00:26:05.548Z,98386.12
2023-05-08T00:28:32.331Z,98384.92
2023-05-08T00:31:02.353Z,98386.13
2023-05-08T00:33:29.312Z,98386.04
2023-05-08T00:36:01.588Z,98389.66
2023-05-08T00:38:31.634Z,98388.63
2023-05-08T00:40:58.344Z,98389.33
2023-05-08T00:43:28.532Z,98390.33
2023-05-08T00:45:56.494Z,98394.13
2023-05-08T00:48:24.082Z,98394.19
2023-05-08T00:50:52.138Z,98399.89
2023-05-08T00:53:19.696Z,98399.36
2023-05-08T00:55:46.553Z,98396.67
2023-05-08T00:58:13.752Z,98401.88
2023-05-08T01:00:41.841Z,98398.92
2023-05-08T01:03:09.748Z,98402.74
2023-05-08T01:05:36.803Z,98405.67
2023-05-08T01:08:04.004Z,98406.81
2023-05-08T01:10:38.161Z,98413.54
2023-05-08T01:13:11.738Z,98413.23
2023-05-08T01:15:43.198Z,98413.36
2023-05-08T01:18:17.622Z,98417.59
2023-05-08T01:21:01.424Z,98423.29
2023-05-08T01:24:06.493Z,98421.13
2023-05-08T01:26:47.971Z,98421.48
2023-05-08T01:29:27.719Z,98417.53
2023-05-08T01:32:19.767Z,98417.19
2023-05-08T01:35:00.738Z,98418.52
2023-05-08T01:37:37.497Z,98420.42
2023-05-08T01:40:19.905Z,98420.33
2023-05-08T01:42:48.546Z,98420.02
2023-05-08T01:45:26.708Z,98423.42
2023-05-08T01:48:01.900Z,98426.22
2023-05-08T01:50:35.607Z,98425.66
2023-05-08T01:53:07.643Z,98430.29
2023-05-08T01:55:36.551Z,98435.35
2023-05-08T01:58:07.742Z,98436.34
2023-05-08T02:00:34.575Z,98442.61
2023-05-08T02:03:01.756Z,98443.42
2023-05-08T02:05:28.595Z,98449.21
2023-05-08T02:07:55.565Z,98445.88
2023-05-08T02:10:24.935Z,98449.83
2023-05-08T02:12:51.840Z,98448.27
2023-05-08T02:15:18.652Z,98445.52
2023-05-08T02:17:46.948Z,98448.05
2023-05-08T02:20:15.267Z,98450.46
2023-05-08T02:22:46.498Z,98449.59
2023-05-08T02:25:14.749Z,98449.65
2023-05-08T02:27:48.435Z,98451.08
2023-05-08T02:30:16.531Z,98446.23
2023-05-08T02:32:47.172Z,98450.14
2023-05-08T02:35:16.253Z,98451.09
2023-05-08T02:37:45.409Z,98450.69
2023-05-08T02:40:13.266Z,98451.00
2023-05-08T02:42:40.252Z,98454.19
2023-05-08T02:45:08.012Z,98457.07
2023-05-08T02:47:48.632Z,98459.02
2023-05-08T02:50:21.794Z,98459.52
2023-05-08T02:52:49.932Z,98460.95
2023-05-08T02:55:38.417Z,98459.89
2023-05-08T02:58:31.809Z,98465.52
2023-05-08T03:01:00.920Z,98464.08
2023-05-08T03:03:45.491Z,98465.53
2023-05-08T03:06:14.070Z,98470.87
2023-05-08T03:08:40.991Z,98473.80
2023-05-08T03:11:16.265Z,98472.35
2023-05-08T03:13:44.934Z,98471.80
2023-05-08T03:16:17.545Z,98473.80
2023-05-08T03:18:53.497Z,98471.75
2023-05-08T03:21:21.318Z,98474.02
2023-05-08T03:23:48.548Z,98476.63
2023-05-08T03:26:22.415Z,98475.44
2023-05-08T03:28:50.596Z,98478.69
2023-05-08T03:31:21.759Z,98483.22
2023-05-08T03:33:50.655Z,98486.39
2023-05-08T03:36:17.454Z,98486.75
2023-05-08T03:38:44.232Z,98490.03
2023-05-08T03:41:11.916Z,98494.67
2023-05-08T03:43:38.837Z,98495.33
2023-05-08T03:46:07.209Z,98494.84
2023-05-08T03:48:34.811Z,98500.14
2023-05-08T03:51:03.319Z,98500.77
2023-05-08T03:53:31.288Z,98502.84
2023-05-08T03:55:59.206Z,98504.58
2023-05-08T03:58:55.453Z,98505.77
2023-05-08T04:01:40.833Z,98505.81
2023-05-08T04:04:30.704Z,98505.98
2023-05-08T04:07:26.999Z,98509.25
2023-05-08T04:10:12.631Z,98509.90
2023-05-08T04:12:45.701Z,98512.98
2023-05-08T04:15:23.490Z,98514.05
2023-05-08T04:17:54.405Z,98512.65
2023-05-08T04:20:22.309Z,98517.20
2023-05-08T04:22:50.484Z,98515.06
2023-05-08T04:25:18.184Z,98519.10
2023-05-08T04:27:45.485Z,98525.45
2023-05-08T04:30:12.677Z,98521.56
2023-05-08T04:33:44.875Z,98527.00
2023-05-08T04:36:13.706Z,98529.55
2023-05-08T04:38:41.815Z,98533.21
2023-05-08T04:41:08.926Z,98530.36
2023-05-08T04:43:36.135Z,98533.46
2023-05-08T04:46:04.032Z,98533.33
2023-05-08T04:48:33.408Z,98535.39
2023-05-08T04:51:00.669Z,98538.15
2023-05-08T04:53:28.249Z,98540.48
2023-05-08T04:55:55.142Z,98547.31
2023-05-08T04:58:22.624Z,98546.07
2023-05-08T05:00:49.464Z,98550.83
2023-05-08T05:03:16.963Z,98547.67
2023-05-08T05:05:44.143Z,98553.87
2023-05-08T05:08:11.276Z,98555.06
2023-05-08T05:10:39.410Z,98559.05
2023-05-08T05:13:06.339Z,98559.71
2023-05-08T05:15:33.280Z,98557.33
2023-05-08T05:18:00.372Z,98562.38
2023-05-08T05:20:27.451Z,98560.64
2023-05-08T05:22:54.225Z,98564.83
2023-05-08T05:25:20.978Z,98567.56
2023-05-08T05:27:47.917Z,98570.32
2023-05-08T05:30:15.237Z,98572.23
2023-05-08T05:32:42.566Z,98568.15
2023-05-08T05:35:10.609Z,98570.02
2023-05-08T05:37:38.052Z,98568.27
2023-05-08T05:40:06.336Z,98572.58
2023-05-08T05:42:33.825Z,98570.69
2023-05-08T05:45:02.165Z,98569.48
2023-05-08T05:47:29.500Z,98571.90
2023-05-08T05:49:57.492Z,98573.98
2023-05-08T05:52:24.224Z,98571.75
2023-05-08T05:54:52.105Z,98574.48
2023-05-08T05:57:19.249Z,98576.83
2023-05-08T05:59:46.345Z,98575.55
2023-05-08T06:02:19.076Z,98573.48
2023-05-08T06:04:46.367Z,98578.10
2023-05-08T06:07:13.414Z,98573.78
2023-05-08T06:09:40.362Z,98573.12
2023-05-08T06:12:10.360Z,98573.94
2023-05-08T06:14:37.070Z,98580.05
2023-05-08T06:17:03.839Z,98580.23
2023-05-08T06:19:31.326Z,98584.95
2023-05-08T06:21:58.224Z,98582.61
2023-05-08T06:24:24.974Z,98584.27
2023-05-08T06:26:51.992Z,98590.82
2023-05-08T06:29:18.767Z,98590.89
2023-05-08T06:31:45.978Z,98594.54
2023-05-08T06:34:13.198Z,98593.75
2023-05-08T06:36:40.042Z,98592.37
2023-05-08T06:39:07.627Z,98593.69
2023-05-08T06:41:34.484Z,98596.70
2023-05-08T06:44:01.390Z,98594.94
2023-05-08T06:46:30.041Z,98596.71
2023-05-08T06:48:57.149Z,98593.20
2023-05-08T06:51:24.023Z,98592.98
2023-05-08T06:53:50.786Z,98596.08
2023-05-08T06:56:17.572Z,98595.31
2023-05-08T06:58:50.530Z,98597.75
2023-05-08T07:01:24.202Z,98601.14
2023-05-08T07:03:51.312Z,98601.26
2023-05-08T07:06:18.166Z,98603.34
2023-05-08T07:08:44.946Z,98607.45
2023-05-08T07:11:11.942Z,98607.61
2023-05-08T07:13:38.917Z,98611.04
2023-05-08T07:16:11.007Z,98605.98
2023-05-08T07:18:38.116Z,98612.02
2023-05-08T07:21:05.591Z,98614.64
2023-05-08T07:23:32.399Z,98614.48
2023-05-08T07:25:59.515Z,98615.02
2023-05-08T07:28:26.417Z,98618.46
2023-05-08T07:30:53.314Z,98621.69
2023-05-08T07:33:20.093Z,98618.21
2023-05-08T07:35:46.866Z,98618.57
2023-05-08T07:38:13.648Z,98622.31
2023-05-08T07:40:40.601Z,98623.23
2023-05-08T07:43:07.346Z,98622.03
2023-05-08T07:45:34.991Z,98621.13
2023-05-08T07:48:01.798Z,98624.43
2023-05-08T07:50:28.603Z,98626.45
2023-05-08T07:52:55.445Z,98627.02
2023-05-08T07:55:22.287Z,98628.08
2023-05-08T07:57:49.048Z,98625.86
2023-05-08T08:00:16.330Z,98629.32
2023-05-08T08:02:43.948Z,98626.23
2023-05-08T08:05:11.367Z,98623.65
2023-05-08T08:07:41.532Z,98621.33
2023-05-08T08:10:08.897Z,98624.75
2023-05-08T08:12:35.966Z,98624.88
2023-05-08T08:15:02.936Z,98623.19
2023-05-08T08:17:29.731Z,98622.07
2023-05-08T08:19:57.220Z,98617.85
2023-05-08T08:22:24.960Z,98619.58
2023-05-08T08:24:54.710Z,98612.69
2023-05-08T08:27:22.266Z,98616.08
2023-05-08T08:29:49.193Z,98615.02
2023-05-08T08:32:16.226Z,98617.39
2023-05-08T08:34:43.104Z,98616.42
2023-05-08T08:37:10.140Z,98618.23
2023-05-08T08:39:36.943Z,98624.27
2023-05-08T08:42:03.837Z,98623.17
2023-05-08T08:44:30.720Z,98624.51
2023-05-08T08:46:58.615Z,98625.18
2023-05-08T08:49:34.183Z,98625.34
2023-05-08T08:52:10.991Z,98624.50
2023-05-08T08:54:38.034Z,98624.74
2023-05-08T08:57:09.264Z,98627.34
2023-05-08T08:59:40.654Z,98629.41
2023-05-08T09:02:11.690Z,98632.52
2023-05-08T09:04:38.952Z,98630.78
2023-05-08T09:07:05.806Z,98634.52
2023-05-08T09:09:36.068Z,98631.13
2023-05-08T09:12:02.929Z,98634.80
2023-05-08T09:14:29.819Z,98633.66
2023-05-08T09:16:56.704Z,98639.41
2023-05-08T09:19:26.254Z,98638.13
2023-05-08T09:21:55.245Z,98640.16
2023-05-08T09:24:23.131Z,98637.41
2023-05-08T09:26:50.143Z,98641.03
2023-05-08T09:29:18.279Z,98638.52
2023-05-08T09:31:46.616Z,98639.89
2023-05-08T09:34:23.991Z,98641.74
2023-05-08T09:36:51.040Z,98643.90
2023-05-08T09:39:22.439Z,98643.82
2023-05-08T09:41:59.119Z,98642.02
2023-05-08T09:44:26.081Z,98643.14
2023-05-08T09:46:53.930Z,98642.16
2023-05-08T09:49:20.819Z,98641.07
2023-05-08T09:51:54.235Z,98646.27
2023-05-08T09:54:21.202Z,98644.82
2023-05-08T09:56:48.014Z,98646.20
2023-05-08T09:59:28.496Z,98646.84
2023-05-08T10:01:56.165Z,98642.86
2023-05-08T10:04:33.841Z,98645.09
2023-05-08T10:07:01.041Z,98644.09
2023-05-08T10:09:32.960Z,98646.39
2023-05-08T10:12:09.693Z,98643.20
2023-05-08T10:14:36.833Z,98643.38
2023-05-08T10:17:04.136Z,98641.42
2023-05-08T10:19:31.542Z,98642.91
2023-05-08T10:21:58.430Z,98644.90
2023-05-08T10:24:33.417Z,98646.79
2023-05-08T10:27:28.103Z,98649.18
2023-05-08T10:29:56.186Z,98647.69
2023-05-08T10:32:23.756Z,98648.94
2023-05-08T10:34:53.911Z,98648.12
2023-05-08T10:37:22.389Z,98650.58
2023-05-08T10:39:49.180Z,98651.26
2023-05-08T10:42:16.005Z,98649.08
2023-05-08T10:44:42.834Z,98648.80
2023-05-08T10:47:31.295Z,98648.81
2023-05-08T10:50:08.820Z,98649.94
2023-05-08T10:52:45.027Z,98652.52
2023-05-08T10:55:31.149Z,98649.44
2023-05-08T10:58:11.252Z,98654.46
2023-05-08T11:00:53.409Z,98652.52
2023-05-08T11:03:31.497Z,98647.40
2023-05-08T11:06:00.951Z,98648.80
2023-05-08T11:08:28.762Z,98644.52
2023-05-08T11:10:58.841Z,98646.20
2023-05-08T11:13:36.410Z,98649.27
2023-05-08T11:16:03.813Z,98651.52
2023-05-08T11:18:45.778Z,98652.86
2023-05-08T11:21:16.621Z,98651.77
2023-05-08T11:23:43.719Z,98650.10
2023-05-08T11:26:14.291Z,98649.13
2023-05-08T11:28:58.492Z,98648.56
2023-05-08T11:31:25.429Z,98648.02
2023-05-08T11:33:52.261Z,98649.35
2023-05-08T11:36:22.853Z,98653.89
2023-05-08T11:39:19.191Z,98659.69
2023-05-08T11:41:48.114Z,98655.30
2023-05-08T11:44:20.583Z,98654.71
2023-05-08T11:46:51.757Z,98651.80
2023-05-08T11:49:23.860Z,98656.27
2023-05-08T11:51:58.063Z,98663.08
2023-05-08T11:54:25.540Z,98664.75
2023-05-08T11:56:54.925Z,98666.36
2023-05-08T11:59:22.196Z,98666.70
2023-05-08T12:02:06.923Z,98663.05
2023-05-08T12:04:46.767Z,98662.10
2023-05-08T12:07:13.950Z,98656.91
2023-05-08T12:09:40.781Z,98663.95
2023-05-08T12:12:07.760Z,98659.82
2023-05-08T12:14:34.640Z,98662.68
2023-05-08T12:17:02.749Z,98661.80
2023-05-08T12:19:29.683Z,98667.10
2023-05-08T12:21:57.040Z,98669.60
2023-05-08T12:24:24.415Z,98670.41
2023-05-08T12:26:54.709Z,98667.55
2023-05-08T12:29:21.456Z,98669.60
2023-05-08T12:31:48.505Z,98667.64
2023-05-08T12:34:15.694Z,98668.98
2023-05-08T12:36:42.457Z,98671.15
2023-05-08T12:39:13.108Z,98667.20
2023-05-08T12:41:50.026Z,98661.36
2023-05-08T12:44:22.370Z,98660.98
2023-05-08T12:46:53.287Z,98660.54
2023-05-08T12:49:25.305Z,98662.64
2023-05-08T12:51:53.077Z,98658.65
2023-05-08T12:54:20.046Z,98653.05
2023-05-08T12:56:47.264Z,98650.61
2023-05-08T12:59:14.415Z,98650.76
2023-05-08T13:01:41.287Z,98656.08
2023-05-08T13:04:08.404Z,98656.02
2023-05-08T13:06:35.764Z,98667.54
2023-05-08T13:09:02.930Z,98663.77
2023-05-08T13:11:34.391Z,98662.59
2023-05-08T13:14:01.387Z,98660.25
2023-05-08T13:16:28.254Z,98656.56
2023-05-08T13:18:55.171Z,98657.23
2023-05-08T13:21:21.962Z,98656.02
2023-05-08T13:23:48.915Z,98661.10
2023-05-08T13:26:15.726Z,98660.91
2023-05-08T13:28:42.529Z,98661.91
2023-05-08T13:31:09.413Z,98660.02
2023-05-08T13:33:38.462Z,98658.78
2023-05-08T13:36:05.417Z,98655.19
2023-05-08T13:38:32.893Z,98653.75
2023-05-08T13:40:59.756Z,98653.73
2023-05-08T13:43:26.595Z,98655.15
2023-05-08T13:45:54.207Z,98648.29
2023-05-08T13:48:21.418Z,98648.28
2023-05-08T13:50:48.171Z,98649.84
2023-05-08T13:53:14.979Z,98647.16
2023-05-08T13:55:42.363Z,98645.94
2023-05-08T13:58:09.328Z,98641.45
2023-05-08T14:00:36.331Z,98640.93
2023-05-08T14:03:03.157Z,98644.34
2023-05-08T14:05:30.039Z,98647.63
2023-05-08T14:07:56.879Z,98642.67
2023-05-08T14:10:23.631Z,98640.11
2023-05-08T14:12:50.402Z,98639.16
2023-05-08T14:15:17.262Z,98634.98
2023-05-08T14:17:44.069Z,98631.83
2023-05-08T14:20:12.499Z,98624.02
2023-05-08T14:22:39.723Z,98627.48
2023-05-08T14:25:07.577Z,98626.20
2023-05-08T14:27:34.306Z,98622.53
2023-05-08T14:30:01.492Z,98632.68
2023-05-08T14:32:28.450Z,98630.29
2023-05-08T14:34:55.544Z,98633.72
2023-05-08T14:37:22.275Z,98630.96
2023-05-08T14:39:49.348Z,98636.70
2023-05-08T14:42:23.029Z,98634.29
2023-05-08T14:44:51.348Z,98636.23
2023-05-08T14:47:18.319Z,98638.48
2023-05-08T14:49:45.210Z,98638.02
2023-05-08T14:52:12.505Z,98645.39
2023-05-08T14:54:39.590Z,98645.77
2023-05-08T14:57:06.852Z,98643.77
2023-05-08T14:59:33.888Z,98647.80
2023-05-08T15:02:00.930Z,98649.22
2023-05-08T15:04:27.939Z,98648.54
2023-05-08T15:06:54.698Z,98652.91
2023-05-08T15:09:21.565Z,98649.63
2023-05-08T15:11:48.768Z,98653.34
2023-05-08T15:14:15.580Z,98653.23
2023-05-08T15:16:42.435Z,98650.56
2023-05-08T15:19:09.598Z,98652.98
2023-05-08T15:21:36.713Z,98652.18
2023-05-08T15:24:03.704Z,98654.61
2023-05-08T15:26:30.832Z,98654.52
2023-05-08T15:28:57.654Z,98651.48
2023-05-08T15:31:24.658Z,98652.73
2023-05-08T15:33:51.870Z,98650.05
2023-05-08T15:36:18.723Z,98650.73
2023-05-08T15:38:45.525Z,98649.08
2023-05-08T15:41:15.074Z,98650.09
2023-05-08T15:43:43.191Z,98651.90
2023-05-08T15:46:10.374Z,98650.23
2023-05-08T15:48:37.320Z,98649.48
2023-05-08T15:51:04.308Z,98640.90
2023-05-08T15:53:31.223Z,98637.75
2023-05-08T15:55:58.042Z,98636.37
2023-05-08T15:58:25.039Z,98638.41
2023-05-08T16:00:52.296Z,98639.80
2023-05-08T16:03:19.540Z,98637.11
2023-05-08T16:05:46.435Z,98636.38
2023-05-08T16:08:13.937Z,98641.20
2023-05-08T16:10:41.416Z,98641.06
2023-05-08T16:13:08.430Z,98638.61
2023-05-08T16:15:35.308Z,98639.42
2023-05-08T16:18:03.083Z,98641.75
2023-05-08T16:20:30.571Z,98640.23
2023-05-08T16:22:58.668Z,98643.29
2023-05-08T16:25:25.844Z,98644.44
2023-05-08T16:27:52.709Z,98645.88
2023-05-08T16:30:19.747Z,98648.39
2023-05-08T16:32:46.872Z,98647.00
2023-05-08T16:35:14.864Z,98648.52
2023-05-08T16:37:42.156Z,98645.90
2023-05-08T16:40:09.498Z,98648.66
2023-05-08T16:42:37.167Z,98647.45
2023-05-08T16:45:08.150Z,98649.98
2023-05-08T16:50:39.175Z,98648.50
2023-05-08T16:53:06.588Z,98650.15
2023-05-08T16:55:33.334Z,98652.84
2023-05-08T16:58:00.352Z,98656.42
2023-05-08T17:00:27.488Z,98654.02
2023-05-08T17:02:54.648Z,98660.70
2023-05-08T17:05:21.872Z,98666.18
2023-05-08T17:07:49.188Z,98670.05
2023-05-08T17:10:16.175Z,98671.52
2023-05-08T17:12:42.943Z,98666.93
2023-05-08T17:15:10.084Z,98671.06
2023-05-08T17:17:36.933Z,98670.34
2023-05-08T17:20:04.683Z,98670.48
2023-05-08T17:22:31.460Z,98666.83
2023-05-08T17:24:58.385Z,98669.95
2023-05-08T17:27:25.254Z,98673.11
2023-05-08T17:29:52.111Z,98675.46
2023-05-08T17:32:18.914Z,98677.47
2023-05-08T17:34:45.900Z,98677.55
2023-05-08T17:37:12.712Z,98675.05
2023-05-08T17:39:39.527Z,98674.11
2023-05-08T17:42:06.732Z,98674.60
2023-05-08T17:44:33.698Z,98676.96
2023-05-08T17:47:00.697Z,98674.88
2023-05-08T17:49:27.722Z,98675.14
2023-05-08T17:51:54.527Z,98676.93
2023-05-08T17:54:21.421Z,98679.09
2023-05-08T17:56:48.748Z,98678.43
2023-05-08T17:59:15.557Z,98681.51
2023-05-08T18:01:42.368Z,98684.93
2023-05-08T18:04:09.361Z,98684.30
2023-05-08T18:06:36.452Z,98690.54
2023-05-08T18:09:03.308Z,98687.76
2023-05-08T18:11:30.131Z,98687.33
2023-05-08T18:13:57.014Z,98692.10
2023-05-08T18:16:24.111Z,98693.83
2023-05-08T18:18:51.971Z,98697.48
2023-05-08T18:21:19.019Z,98703.47
2023-05-08T18:23:45.984Z,98705.90
2023-05-08T18:26:14.836Z,98707.94
2023-05-08T18:28:41.867Z,98708.45
2023-05-08T18:31:08.697Z,98711.75
2023-05-08T18:33:37.271Z,98715.02
2023-05-08T18:36:05.598Z,98717.06
2023-05-08T18:38:33.113Z,98718.62
2023-05-08T18:41:04.023Z,98724.19
2023-05-08T18:43:30.939Z,98724.61
2023-05-08T18:45:59.135Z,98729.50
2023-05-08T18:48:26.442Z,98723.09
2023-05-08T18:50:53.415Z,98726.75
2023-05-08T18:53:20.300Z,98724.11
2023-05-08T18:55:47.158Z,98723.63
2023-05-08T18:58:13.957Z,98726.73
2023-05-08T19:00:40.976Z,98729.77
2023-05-08T19:03:08.036Z,98732.34
2023-05-08T19:05:35.329Z,98732.52
2023-05-08T19:08:02.833Z,98729.98
2023-05-08T19:10:29.863Z,98734.98
2023-05-08T19:12:56.888Z,98739.54
2023-05-08T19:15:23.805Z,98737.02
2023-05-08T19:17:52.907Z,98737.98
2023-05-08T19:20:20.287Z,98738.63
2023-05-08T19:22:48.695Z,98738.62
2023-05-08T19:25:16.315Z,98741.98
2023-05-08T19:27:43.347Z,98741.02
2023-05-08T19:30:10.645Z,98738.42
2023-05-08T19:32:37.723Z,98738.33
2023-05-08T19:35:05.173Z,98737.96
2023-05-08T19:37:32.248Z,98732.18
2023-05-08T19:39:59.150Z,98732.19
2023-05-08T19:42:26.327Z,98727.42
2023-05-08T19:44:53.262Z,98725.77
2023-05-08T19:47:20.223Z,98723.67
2023-05-08T19:49:47.181Z,98720.23
2023-05-08T19:52:14.059Z,98723.39
2023-05-08T19:54:40.824Z,98722.41
2023-05-08T19:57:07.794Z,98725.80
2023-05-08T19:59:35.044Z,98725.01
2023-05-08T20:02:01.933Z,98717.58
2023-05-08T20:04:29.021Z,98719.27
2023-05-08T20:06:55.914Z,98716.79
2023-05-08T20:09:22.759Z,98717.15
2023-05-08T20:11:50.001Z,98716.98
2023-05-08T20:14:16.903Z,98714.73
2023-05-08T20:16:43.969Z,98711.12
2023-05-08T20:19:11.082Z,98712.13
2023-05-08T20:21:37.932Z,98706.02
2023-05-08T20:24:05.131Z,98706.49
2023-05-08T20:26:32.530Z,98701.69
2023-05-08T20:28:59.897Z,98701.48
2023-05-08T20:31:27.884Z,98700.46
2023-05-08T20:33:54.846Z,98700.61
2023-05-08T20:36:21.663Z,98700.92
2023-05-08T20:38:48.506Z,98699.30
2023-05-08T20:41:15.380Z,98701.44
2023-05-08T20:43:42.246Z,98699.55
2023-05-08T20:46:10.144Z,98698.33
2023-05-08T20:48:38.476Z,98701.88
2023-05-08T20:51:05.582Z,98700.41
2023-05-08T20:53:33.159Z,98703.98
2023-05-08T20:56:02.163Z,98701.00
2023-05-08T20:58:29.179Z,98700.84
2023-05-08T21:00:56.290Z,98699.98
2023-05-08T21:03:23.344Z,98702.29
2023-05-08T21:05:50.327Z,98702.58
2023-05-08T21:08:17.612Z,98703.66
2023-05-08T21:10:44.513Z,98701.73
2023-05-08T21:13:11.694Z,98699.39
2023-05-08T21:15:38.705Z,98700.98
2023-05-08T21:18:05.926Z,98697.66
2023-05-08T21:20:34.695Z,98700.36
2023-05-08T21:23:01.585Z,98699.44
2023-05-08T21:25:28.566Z,98698.48
2023-05-08T21:27:55.551Z,98694.61
2023-05-08T21:30:22.413Z,98701.64
2023-05-08T21:32:49.338Z,98698.80
2023-05-08T21:35:16.379Z,98697.61
2023-05-08T21:37:43.517Z,98698.17
2023-05-08T21:40:10.515Z,98699.71
2023-05-08T21:42:37.285Z,98700.18
2023-05-08T21:45:04.536Z,98701.71
2023-05-08T21:47:31.447Z,98698.58
2023-05-08T21:49:58.329Z,98697.31
2023-05-08T21:52:26.222Z,98698.00
2023-05-08T21:54:53.058Z,98697.52
2023-05-08T21:57:19.960Z,98696.51
2023-05-08T21:59:47.010Z,98696.75
2023-05-08T22:02:13.918Z,98700.16
2023-05-08T22:04:40.801Z,98699.41
2023-05-08T22:07:07.664Z,98696.66
2023-05-08T22:09:34.623Z,98694.52
2023-05-08T22:12:01.395Z,98692.64
2023-05-08T22:14:28.309Z,98692.73
2023-05-08T22:16:55.212Z,98695.23
2023-05-08T22:19:22.263Z,98689.62
2023-05-08T22:21:49.219Z,98688.77
2023-05-08T22:24:16.109Z,98684.94
2023-05-08T22:26:42.955Z,98686.55
2023-05-08T22:29:10.161Z,98687.27
2023-05-08T22:31:36.941Z,98688.48
2023-05-08T22:34:04.350Z,98687.83
2023-05-08T22:36:31.112Z,98685.68
2023-05-08T22:38:58.039Z,98684.67
2023-05-08T22:41:24.929Z,98684.80
2023-05-08T22:43:51.831Z,98681.75
2023-05-08T22:46:18.757Z,98679.20
2023-05-08T22:48:45.930Z,98677.16
2023-05-08T22:51:13.443Z,98675.83
2023-05-08T22:53:40.215Z,98673.86
2023-05-08T22:56:07.034Z,98673.30
2023-05-08T22:58:33.753Z,98671.59
2023-05-08T23:01:00.622Z,98672.59
2023-05-08T23:03:27.656Z,98671.90
2023-05-08T23:05:54.566Z,98669.61
2023-05-08T23:08:22.612Z,98670.90
2023-05-08T23:10:49.524Z,98669.14
2023-05-08T23:13:16.325Z,98667.90
2023-05-08T23:15:43.132Z,98669.41
2023-05-08T23:18:10.024Z,98670.84
2023-05-08T23:20:36.941Z,98670.25
2023-05-08T23:23:03.704Z,98670.53
2023-05-08T23:25:30.666Z,98667.94
2023-05-08T23:27:57.518Z,98664.03
2023-05-08T23:30:24.286Z,98665.25
2023-05-08T23:32:51.447Z,98663.77
2023-05-08T23:35:18.304Z,98662.77
2023-05-08T23:37:45.184Z,98665.73
2023-05-08T23:40:12.338Z,98657.17
2023-05-08T23:42:40.011Z,98660.35
2023-05-08T23:45:07.922Z,98656.14
2023-05-08T23:47:34.720Z,98656.90
2023-05-08T23:50:01.550Z,98654.77
2023-05-08T23:52:28.885Z,98654.15
2023-05-08T23:54:55.799Z,98654.00
2023-05-08T23:57:23.237Z,98652.60
2023-05-08T23:59:49.998Z,98653.32
